sensor_id;sensor_type;location;lat;lon;timestamp;temperature;humidity
17639;DHT22;8938;53.546;9.954;2022-09-27T00:01:09;15.20;99.90
17639;DHT22;8938;53.546;9.954;2022-09-27T00:03:35;15.20;99.90
17639;DHT22;8938;53.546;9.954;2022-09-27T00:08:31;15.20;99.90
17639;DHT22;8938;53.546;9.954;2022-09-27T00:11:24;15.30;99.90
17639;DHT22;8938;53.546;9.954;2022-09-27T00:13:51;15.30;99.90
17639;DHT22;8938;53.546;9.954;2022-09-27T00:16:17;15.30;99.90
17639;DHT22;8938;53.546;9.954;2022-09-27T00:18:43;15.30;99.90
17639;DHT22;8938;53.546;9.954;2022-09-27T00:21:11;15.30;99.90
17639;DHT22;8938;53.546;9.954;2022-09-27T00:23:37;15.20;99.90
17639;DHT22;8938;53.546;9.954;2022-09-27T00:26:04;15.20;99.90
17639;DHT22;8938;53.546;9.954;2022-09-27T00:28:30;15.20;99.90
17639;DHT22;8938;53.546;9.954;2022-09-27T00:30:56;15.20;99.90
17639;DHT22;8938;53.546;9.954;2022-09-27T00:33:22;15.10;99.90
17639;DHT22;8938;53.546;9.954;2022-09-27T00:35:48;15.20;99.90
17639;DHT22;8938;53.546;9.954;2022-09-27T00:38:14;15.20;99.90
17639;DHT22;8938;53.546;9.954;2022-09-27T00:40:39;15.10;99.90
17639;DHT22;8938;53.546;9.954;2022-09-27T00:43:17;15.20;99.90
17639;DHT22;8938;53.546;9.954;2022-09-27T00:45:49;15.10;99.90
17639;DHT22;8938;53.546;9.954;2022-09-27T00:48:20;15.20;99.90
17639;DHT22;8938;53.546;9.954;2022-09-27T00:50:49;15.10;99.90
17639;DHT22;8938;53.546;9.954;2022-09-27T00:53:44;15.10;99.90
17639;DHT22;8938;53.546;9.954;2022-09-27T00:56:19;15.10;99.90
17639;DHT22;8938;53.546;9.954;2022-09-27T00:58:51;15.10;99.90
17639;DHT22;8938;53.546;9.954;2022-09-27T01:01:20;15.00;99.90
17639;DHT22;8938;53.546;9.954;2022-09-27T01:03:54;15.10;99.90
17639;DHT22;8938;53.546;9.954;2022-09-27T01:06:21;15.00;99.90
17639;DHT22;8938;53.546;9.954;2022-09-27T01:08:47;15.10;99.90
17639;DHT22;8938;53.546;9.954;2022-09-27T01:26:02;15.10;99.90
17639;DHT22;8938;53.546;9.954;2022-09-27T01:39:31;15.10;99.90
17639;DHT22;8938;53.546;9.954;2022-09-27T01:42:23;15.10;99.90
17639;DHT22;8938;53.546;9.954;2022-09-27T01:45:01;15.10;99.90
17639;DHT22;8938;53.546;9.954;2022-09-27T01:47:49;15.00;99.90
17639;DHT22;8938;53.546;9.954;2022-09-27T01:50:21;15.10;99.90
17639;DHT22;8938;53.546;9.954;2022-09-27T01:52:56;15.10;99.90
17639;DHT22;8938;53.546;9.954;2022-09-27T01:55:28;15.20;99.90
17639;DHT22;8938;53.546;9.954;2022-09-27T01:57:59;15.20;99.90
17639;DHT22;8938;53.546;9.954;2022-09-27T02:00:26;15.20;99.90
17639;DHT22;8938;53.546;9.954;2022-09-27T02:03:00;15.30;99.90
17639;DHT22;8938;53.546;9.954;2022-09-27T02:05:39;15.40;99.90
17639;DHT22;8938;53.546;9.954;2022-09-27T02:08:24;15.20;99.90
17639;DHT22;8938;53.546;9.954;2022-09-27T02:10:53;15.30;99.90
17639;DHT22;8938;53.546;9.954;2022-09-27T02:13:22;15.30;99.90
17639;DHT22;8938;53.546;9.954;2022-09-27T02:16:43;15.20;99.90
17639;DHT22;8938;53.546;9.954;2022-09-27T02:21:20;15.30;99.90
17639;DHT22;8938;53.546;9.954;2022-09-27T02:23:51;15.30;99.90
17639;DHT22;8938;53.546;9.954;2022-09-27T02:26:35;15.30;99.90
17639;DHT22;8938;53.546;9.954;2022-09-27T02:29:08;15.20;99.90
17639;DHT22;8938;53.546;9.954;2022-09-27T02:31:35;15.20;99.90
17639;DHT22;8938;53.546;9.954;2022-09-27T02:34:06;15.20;99.90
17639;DHT22;8938;53.546;9.954;2022-09-27T02:36:32;15.10;99.90
17639;DHT22;8938;53.546;9.954;2022-09-27T02:38:58;15.20;99.90
17639;DHT22;8938;53.546;9.954;2022-09-27T02:41:25;15.20;99.90
17639;DHT22;8938;53.546;9.954;2022-09-27T02:43:57;15.20;99.90
17639;DHT22;8938;53.546;9.954;2022-09-27T02:54:25;15.40;99.90
17639;DHT22;8938;53.546;9.954;2022-09-27T02:57:25;15.40;99.90
17639;DHT22;8938;53.546;9.954;2022-09-27T03:00:13;15.40;99.90
17639;DHT22;8938;53.546;9.954;2022-09-27T03:05:41;15.30;99.90
17639;DHT22;8938;53.546;9.954;2022-09-27T03:08:09;15.30;99.90
17639;DHT22;8938;53.546;9.954;2022-09-27T03:10:34;15.30;99.90
17639;DHT22;8938;53.546;9.954;2022-09-27T03:13:00;15.30;99.90
17639;DHT22;8938;53.546;9.954;2022-09-27T03:15:26;15.30;99.90
17639;DHT22;8938;53.546;9.954;2022-09-27T03:17:51;15.30;99.90
17639;DHT22;8938;53.546;9.954;2022-09-27T03:20:17;15.30;99.90
17639;DHT22;8938;53.546;9.954;2022-09-27T03:22:42;15.30;99.90
17639;DHT22;8938;53.546;9.954;2022-09-27T03:25:08;15.30;99.90
17639;DHT22;8938;53.546;9.954;2022-09-27T03:27:34;15.30;99.90
17639;DHT22;8938;53.546;9.954;2022-09-27T03:30:00;15.30;99.90
17639;DHT22;8938;53.546;9.954;2022-09-27T03:32:26;15.40;99.90
17639;DHT22;8938;53.546;9.954;2022-09-27T03:34:52;15.30;99.90
17639;DHT22;8938;53.546;9.954;2022-09-27T03:37:19;15.30;99.90
17639;DHT22;8938;53.546;9.954;2022-09-27T03:39:45;15.30;99.90
17639;DHT22;8938;53.546;9.954;2022-09-27T03:42:10;15.30;99.90
17639;DHT22;8938;53.546;9.954;2022-09-27T03:44:36;15.30;99.90
17639;DHT22;8938;53.546;9.954;2022-09-27T03:47:02;15.40;99.90
17639;DHT22;8938;53.546;9.954;2022-09-27T03:49:27;15.40;99.90
17639;DHT22;8938;53.546;9.954;2022-09-27T03:51:53;15.40;99.90
17639;DHT22;8938;53.546;9.954;2022-09-27T03:54:19;15.40;99.90
17639;DHT22;8938;53.546;9.954;2022-09-27T03:56:45;15.40;99.90
17639;DHT22;8938;53.546;9.954;2022-09-27T03:59:10;15.40;99.90
17639;DHT22;8938;53.546;9.954;2022-09-27T04:01:36;15.40;99.90
17639;DHT22;8938;53.546;9.954;2022-09-27T04:04:03;15.40;99.90
17639;DHT22;8938;53.546;9.954;2022-09-27T04:06:29;15.40;99.90
17639;DHT22;8938;53.546;9.954;2022-09-27T04:08:54;15.40;99.90
17639;DHT22;8938;53.546;9.954;2022-09-27T04:11:20;15.40;99.90
17639;DHT22;8938;53.546;9.954;2022-09-27T04:13:48;15.30;99.90
17639;DHT22;8938;53.546;9.954;2022-09-27T04:16:13;15.40;99.90
17639;DHT22;8938;53.546;9.954;2022-09-27T04:18:40;15.40;99.90
17639;DHT22;8938;53.546;9.954;2022-09-27T04:21:06;15.40;99.90
17639;DHT22;8938;53.546;9.954;2022-09-27T04:23:31;15.40;99.90
17639;DHT22;8938;53.546;9.954;2022-09-27T04:25:58;15.40;99.90
17639;DHT22;8938;53.546;9.954;2022-09-27T04:28:23;15.40;99.90
17639;DHT22;8938;53.546;9.954;2022-09-27T04:30:49;15.40;99.90
17639;DHT22;8938;53.546;9.954;2022-09-27T04:33:15;15.40;99.90
17639;DHT22;8938;53.546;9.954;2022-09-27T04:35:41;15.40;99.90
17639;DHT22;8938;53.546;9.954;2022-09-27T04:38:26;15.40;99.90
17639;DHT22;8938;53.546;9.954;2022-09-27T04:40:51;15.50;99.90
17639;DHT22;8938;53.546;9.954;2022-09-27T04:43:17;15.40;99.90
17639;DHT22;8938;53.546;9.954;2022-09-27T04:45:43;15.40;99.90
17639;DHT22;8938;53.546;9.954;2022-09-27T04:48:09;15.30;99.90
17639;DHT22;8938;53.546;9.954;2022-09-27T04:50:35;15.30;99.90
17639;DHT22;8938;53.546;9.954;2022-09-27T04:53:00;15.30;99.90
17639;DHT22;8938;53.546;9.954;2022-09-27T04:55:26;15.30;99.90
17639;DHT22;8938;53.546;9.954;2022-09-27T04:57:52;15.30;99.90
17639;DHT22;8938;53.546;9.954;2022-09-27T05:00:18;15.30;99.90
17639;DHT22;8938;53.546;9.954;2022-09-27T05:02:45;15.30;99.90
17639;DHT22;8938;53.546;9.954;2022-09-27T05:05:13;15.30;99.90
17639;DHT22;8938;53.546;9.954;2022-09-27T05:07:39;15.30;99.90
17639;DHT22;8938;53.546;9.954;2022-09-27T05:10:06;15.30;99.90
17639;DHT22;8938;53.546;9.954;2022-09-27T05:12:32;15.20;99.90
17639;DHT22;8938;53.546;9.954;2022-09-27T05:14:57;15.20;99.90
17639;DHT22;8938;53.546;9.954;2022-09-27T05:17:23;15.30;99.90
17639;DHT22;8938;53.546;9.954;2022-09-27T05:19:49;15.20;99.90
17639;DHT22;8938;53.546;9.954;2022-09-27T05:22:15;15.20;99.90
17639;DHT22;8938;53.546;9.954;2022-09-27T05:24:41;15.20;99.90
17639;DHT22;8938;53.546;9.954;2022-09-27T05:27:09;15.20;99.90
17639;DHT22;8938;53.546;9.954;2022-09-27T05:29:36;15.10;99.90
17639;DHT22;8938;53.546;9.954;2022-09-27T05:32:02;15.10;99.90
17639;DHT22;8938;53.546;9.954;2022-09-27T05:34:28;15.10;99.90
17639;DHT22;8938;53.546;9.954;2022-09-27T05:36:57;15.10;99.90
17639;DHT22;8938;53.546;9.954;2022-09-27T05:39:22;15.10;99.90
17639;DHT22;8938;53.546;9.954;2022-09-27T05:41:48;15.20;99.90
17639;DHT22;8938;53.546;9.954;2022-09-27T05:44:15;15.20;99.90
17639;DHT22;8938;53.546;9.954;2022-09-27T05:46:41;15.20;99.90
17639;DHT22;8938;53.546;9.954;2022-09-27T05:49:07;15.20;99.90
17639;DHT22;8938;53.546;9.954;2022-09-27T05:51:32;15.30;99.90
17639;DHT22;8938;53.546;9.954;2022-09-27T05:53:58;15.30;99.90
17639;DHT22;8938;53.546;9.954;2022-09-27T05:56:24;15.30;99.90
17639;DHT22;8938;53.546;9.954;2022-09-27T05:58:50;15.30;99.90
17639;DHT22;8938;53.546;9.954;2022-09-27T06:01:16;15.20;99.90
17639;DHT22;8938;53.546;9.954;2022-09-27T06:03:42;15.20;99.90
17639;DHT22;8938;53.546;9.954;2022-09-27T06:06:08;15.20;99.90
17639;DHT22;8938;53.546;9.954;2022-09-27T06:08:36;15.10;99.90
17639;DHT22;8938;53.546;9.954;2022-09-27T06:11:10;15.10;99.90
17639;DHT22;8938;53.546;9.954;2022-09-27T06:13:37;15.20;99.90
17639;DHT22;8938;53.546;9.954;2022-09-27T06:16:04;15.20;99.90
17639;DHT22;8938;53.546;9.954;2022-09-27T06:18:30;15.20;99.90
17639;DHT22;8938;53.546;9.954;2022-09-27T06:20:59;15.10;99.90
17639;DHT22;8938;53.546;9.954;2022-09-27T06:23:25;14.90;99.90
17639;DHT22;8938;53.546;9.954;2022-09-27T06:25:51;14.80;99.90
17639;DHT22;8938;53.546;9.954;2022-09-27T06:28:18;14.70;99.90
17639;DHT22;8938;53.546;9.954;2022-09-27T06:30:45;14.60;99.90
17639;DHT22;8938;53.546;9.954;2022-09-27T06:33:13;14.70;99.90
17639;DHT22;8938;53.546;9.954;2022-09-27T06:35:40;14.60;99.90
17639;DHT22;8938;53.546;9.954;2022-09-27T06:38:09;14.70;99.90
17639;DHT22;8938;53.546;9.954;2022-09-27T06:40:35;14.70;99.90
17639;DHT22;8938;53.546;9.954;2022-09-27T06:43:12;14.80;99.90
17639;DHT22;8938;53.546;9.954;2022-09-27T06:45:38;14.80;99.90
17639;DHT22;8938;53.546;9.954;2022-09-27T06:48:05;14.80;99.90
17639;DHT22;8938;53.546;9.954;2022-09-27T06:50:33;14.70;99.90
17639;DHT22;8938;53.546;9.954;2022-09-27T06:53:00;14.70;99.90
17639;DHT22;8938;53.546;9.954;2022-09-27T06:55:26;14.70;99.90
17639;DHT22;8938;53.546;9.954;2022-09-27T06:57:59;14.70;99.90
17639;DHT22;8938;53.546;9.954;2022-09-27T07:00:43;14.80;99.90
17639;DHT22;8938;53.546;9.954;2022-09-27T07:03:12;14.80;99.90
17639;DHT22;8938;53.546;9.954;2022-09-27T07:05:39;14.80;99.90
17639;DHT22;8938;53.546;9.954;2022-09-27T07:08:07;14.70;99.90
17639;DHT22;8938;53.546;9.954;2022-09-27T07:10:34;14.80;99.90
17639;DHT22;8938;53.546;9.954;2022-09-27T07:13:06;14.80;99.90
17639;DHT22;8938;53.546;9.954;2022-09-27T07:15:33;14.80;99.90
17639;DHT22;8938;53.546;9.954;2022-09-27T07:18:00;14.80;99.90
17639;DHT22;8938;53.546;9.954;2022-09-27T07:20:26;14.80;99.90
17639;DHT22;8938;53.546;9.954;2022-09-27T07:22:54;14.80;99.90
17639;DHT22;8938;53.546;9.954;2022-09-27T07:25:20;14.80;99.90
17639;DHT22;8938;53.546;9.954;2022-09-27T07:27:46;14.70;99.90
17639;DHT22;8938;53.546;9.954;2022-09-27T07:30:12;14.80;99.90
17639;DHT22;8938;53.546;9.954;2022-09-27T07:32:38;14.80;99.90
17639;DHT22;8938;53.546;9.954;2022-09-27T07:35:05;14.90;99.90
17639;DHT22;8938;53.546;9.954;2022-09-27T07:37:32;14.90;99.90
17639;DHT22;8938;53.546;9.954;2022-09-27T07:39:59;15.00;99.90
17639;DHT22;8938;53.546;9.954;2022-09-27T07:42:25;15.00;99.90
17639;DHT22;8938;53.546;9.954;2022-09-27T07:44:50;15.00;99.90
17639;DHT22;8938;53.546;9.954;2022-09-27T07:47:16;15.00;99.90
17639;DHT22;8938;53.546;9.954;2022-09-27T07:49:43;15.10;99.90
17639;DHT22;8938;53.546;9.954;2022-09-27T07:52:09;15.00;99.90
17639;DHT22;8938;53.546;9.954;2022-09-27T07:54:34;15.10;99.90
17639;DHT22;8938;53.546;9.954;2022-09-27T07:57:01;15.10;99.90
17639;DHT22;8938;53.546;9.954;2022-09-27T07:59:27;15.20;99.90
17639;DHT22;8938;53.546;9.954;2022-09-27T08:01:53;15.20;99.90
17639;DHT22;8938;53.546;9.954;2022-09-27T08:04:20;15.20;99.90
17639;DHT22;8938;53.546;9.954;2022-09-27T08:06:46;15.20;99.90
17639;DHT22;8938;53.546;9.954;2022-09-27T08:09:11;15.20;99.90
17639;DHT22;8938;53.546;9.954;2022-09-27T08:11:37;15.20;99.90
17639;DHT22;8938;53.546;9.954;2022-09-27T08:14:04;15.10;99.90
17639;DHT22;8938;53.546;9.954;2022-09-27T08:16:32;15.10;99.90
17639;DHT22;8938;53.546;9.954;2022-09-27T08:18:58;15.10;99.90
17639;DHT22;8938;53.546;9.954;2022-09-27T08:21:23;15.00;99.90
17639;DHT22;8938;53.546;9.954;2022-09-27T08:23:49;15.10;99.90
17639;DHT22;8938;53.546;9.954;2022-09-27T08:26:14;15.10;99.90
17639;DHT22;8938;53.546;9.954;2022-09-27T08:28:40;15.10;99.90
17639;DHT22;8938;53.546;9.954;2022-09-27T08:31:06;15.10;99.90
17639;DHT22;8938;53.546;9.954;2022-09-27T08:33:31;15.10;99.90
17639;DHT22;8938;53.546;9.954;2022-09-27T08:35:57;15.00;99.90
17639;DHT22;8938;53.546;9.954;2022-09-27T08:38:22;15.00;99.90
17639;DHT22;8938;53.546;9.954;2022-09-27T08:40:52;15.00;99.90
17639;DHT22;8938;53.546;9.954;2022-09-27T08:43:46;14.90;99.90
17639;DHT22;8938;53.546;9.954;2022-09-27T08:49:32;14.80;99.90
17639;DHT22;8938;53.546;9.954;2022-09-27T08:52:03;14.70;99.90
17639;DHT22;8938;53.546;9.954;2022-09-27T08:54:31;14.70;99.90
17639;DHT22;8938;53.546;9.954;2022-09-27T08:57:01;14.70;99.90
17639;DHT22;8938;53.546;9.954;2022-09-27T08:59:33;14.70;99.90
17639;DHT22;8938;53.546;9.954;2022-09-27T09:02:00;14.70;99.90
17639;DHT22;8938;53.546;9.954;2022-09-27T09:04:32;14.70;99.90
17639;DHT22;8938;53.546;9.954;2022-09-27T09:07:21;14.60;99.90
17639;DHT22;8938;53.546;9.954;2022-09-27T09:12:52;14.50;99.90
17639;DHT22;8938;53.546;9.954;2022-09-27T09:30:22;14.60;99.90
17639;DHT22;8938;53.546;9.954;2022-09-27T09:33:13;14.60;99.90
17639;DHT22;8938;53.546;9.954;2022-09-27T09:35:56;14.60;99.90
17639;DHT22;8938;53.546;9.954;2022-09-27T09:38:44;14.70;99.90
17639;DHT22;8938;53.546;9.954;2022-09-27T09:41:19;14.70;99.90
17639;DHT22;8938;53.546;9.954;2022-09-27T09:44:04;14.70;99.90
17639;DHT22;8938;53.546;9.954;2022-09-27T09:46:39;14.80;99.90
17639;DHT22;8938;53.546;9.954;2022-09-27T09:49:28;14.70;99.90
17639;DHT22;8938;53.546;9.954;2022-09-27T09:51:58;14.80;99.90
17639;DHT22;8938;53.546;9.954;2022-09-27T09:54:35;14.80;99.90
17639;DHT22;8938;53.546;9.954;2022-09-27T09:57:09;14.90;99.90
17639;DHT22;8938;53.546;9.954;2022-09-27T09:59:48;14.90;99.90
17639;DHT22;8938;53.546;9.954;2022-09-27T10:02:31;15.00;99.90
17639;DHT22;8938;53.546;9.954;2022-09-27T10:04:58;15.10;99.90
17639;DHT22;8938;53.546;9.954;2022-09-27T10:07:24;15.10;99.90
17639;DHT22;8938;53.546;9.954;2022-09-27T10:09:54;15.00;99.90
17639;DHT22;8938;53.546;9.954;2022-09-27T10:12:21;15.10;99.90
17639;DHT22;8938;53.546;9.954;2022-09-27T10:14:48;15.20;99.90
17639;DHT22;8938;53.546;9.954;2022-09-27T10:17:17;15.20;99.90
17639;DHT22;8938;53.546;9.954;2022-09-27T10:19:43;15.30;99.90
17639;DHT22;8938;53.546;9.954;2022-09-27T10:22:15;15.40;99.90
17639;DHT22;8938;53.546;9.954;2022-09-27T10:27:23;15.30;99.90
17639;DHT22;8938;53.546;9.954;2022-09-27T10:29:56;15.30;99.90
17639;DHT22;8938;53.546;9.954;2022-09-27T10:32:26;15.30;99.90
17639;DHT22;8938;53.546;9.954;2022-09-27T10:34:56;15.30;99.90
17639;DHT22;8938;53.546;9.954;2022-09-27T10:37:41;15.40;99.90
17639;DHT22;8938;53.546;9.954;2022-09-27T10:40:29;15.40;99.90
17639;DHT22;8938;53.546;9.954;2022-09-27T10:42:55;15.40;99.90
17639;DHT22;8938;53.546;9.954;2022-09-27T10:47:46;15.50;99.90
17639;DHT22;8938;53.546;9.954;2022-09-27T10:50:18;15.60;99.90
17639;DHT22;8938;53.546;9.954;2022-09-27T10:52:47;15.60;99.90
17639;DHT22;8938;53.546;9.954;2022-09-27T10:55:22;15.60;99.90
17639;DHT22;8938;53.546;9.954;2022-09-27T10:57:51;15.70;99.90
17639;DHT22;8938;53.546;9.954;2022-09-27T11:03:14;15.70;99.90
17639;DHT22;8938;53.546;9.954;2022-09-27T11:05:41;15.60;99.90
17639;DHT22;8938;53.546;9.954;2022-09-27T11:08:23;15.70;99.90
17639;DHT22;8938;53.546;9.954;2022-09-27T11:11:02;15.80;99.90
17639;DHT22;8938;53.546;9.954;2022-09-27T11:13:28;15.70;99.90
17639;DHT22;8938;53.546;9.954;2022-09-27T11:21:30;15.70;99.90
17639;DHT22;8938;53.546;9.954;2022-09-27T11:30:16;15.70;99.90
17639;DHT22;8938;53.546;9.954;2022-09-27T11:35:58;15.60;99.90
17639;DHT22;8938;53.546;9.954;2022-09-27T11:38:54;15.70;99.90
17639;DHT22;8938;53.546;9.954;2022-09-27T11:50:31;16.30;99.90
17639;DHT22;8938;53.546;9.954;2022-09-27T11:55:42;16.30;99.90
17639;DHT22;8938;53.546;9.954;2022-09-27T12:04:00;16.50;99.90
17639;DHT22;8938;53.546;9.954;2022-09-27T12:06:48;16.60;99.90
17639;DHT22;8938;53.546;9.954;2022-09-27T12:09:22;16.60;99.90
17639;DHT22;8938;53.546;9.954;2022-09-27T12:12:02;16.60;99.90
17639;DHT22;8938;53.546;9.954;2022-09-27T12:14:34;16.80;99.90
17639;DHT22;8938;53.546;9.954;2022-09-27T12:17:02;16.80;99.90
17639;DHT22;8938;53.546;9.954;2022-09-27T12:19:33;16.70;99.90
17639;DHT22;8938;53.546;9.954;2022-09-27T12:22:02;16.50;99.90
17639;DHT22;8938;53.546;9.954;2022-09-27T12:24:29;16.50;99.90
17639;DHT22;8938;53.546;9.954;2022-09-27T12:27:00;16.60;99.90
17639;DHT22;8938;53.546;9.954;2022-09-27T12:29:36;16.70;99.90
17639;DHT22;8938;53.546;9.954;2022-09-27T12:32:12;16.80;99.90
17639;DHT22;8938;53.546;9.954;2022-09-27T12:42:44;16.40;99.90
17639;DHT22;8938;53.546;9.954;2022-09-27T12:45:14;16.30;99.90
17639;DHT22;8938;53.546;9.954;2022-09-27T12:48:05;16.30;99.90
17639;DHT22;8938;53.546;9.954;2022-09-27T12:50:43;16.30;99.90
17639;DHT22;8938;53.546;9.954;2022-09-27T12:53:31;16.40;99.90
17639;DHT22;8938;53.546;9.954;2022-09-27T13:02:19;16.30;99.90
17639;DHT22;8938;53.546;9.954;2022-09-27T13:07:39;16.30;99.90
17639;DHT22;8938;53.546;9.954;2022-09-27T13:10:20;16.30;99.90
17639;DHT22;8938;53.546;9.954;2022-09-27T13:12:53;16.50;99.90
17639;DHT22;8938;53.546;9.954;2022-09-27T13:15:29;16.50;99.90
17639;DHT22;8938;53.546;9.954;2022-09-27T13:17:57;16.50;99.90
17639;DHT22;8938;53.546;9.954;2022-09-27T13:23:04;16.30;99.90
17639;DHT22;8938;53.546;9.954;2022-09-27T13:25:48;16.30;99.90
17639;DHT22;8938;53.546;9.954;2022-09-27T13:31:00;16.50;99.90
17639;DHT22;8938;53.546;9.954;2022-09-27T13:39:15;16.60;99.90
17639;DHT22;8938;53.546;9.954;2022-09-27T13:47:32;16.70;99.90
17639;DHT22;8938;53.546;9.954;2022-09-27T13:50:23;16.70;99.90
17639;DHT22;8938;53.546;9.954;2022-09-27T13:52:56;16.80;99.90
17639;DHT22;8938;53.546;9.954;2022-09-27T13:55:59;16.60;99.90
17639;DHT22;8938;53.546;9.954;2022-09-27T13:58:51;16.60;99.90
17639;DHT22;8938;53.546;9.954;2022-09-27T14:01:21;16.60;99.90
17639;DHT22;8938;53.546;9.954;2022-09-27T14:06:54;16.40;99.90
17639;DHT22;8938;53.546;9.954;2022-09-27T14:09:28;16.40;99.90
17639;DHT22;8938;53.546;9.954;2022-09-27T14:11:59;16.40;99.90
17639;DHT22;8938;53.546;9.954;2022-09-27T14:14:29;16.30;99.90
17639;DHT22;8938;53.546;9.954;2022-09-27T14:17:00;16.30;99.90
17639;DHT22;8938;53.546;9.954;2022-09-27T14:19:26;16.30;99.90
17639;DHT22;8938;53.546;9.954;2022-09-27T14:21:53;16.30;99.90
17639;DHT22;8938;53.546;9.954;2022-09-27T14:27:02;16.30;99.90
17639;DHT22;8938;53.546;9.954;2022-09-27T14:29:31;16.20;99.90
17639;DHT22;8938;53.546;9.954;2022-09-27T14:32:03;16.20;99.90
17639;DHT22;8938;53.546;9.954;2022-09-27T14:34:29;16.20;99.90
17639;DHT22;8938;53.546;9.954;2022-09-27T14:36:55;16.30;99.90
17639;DHT22;8938;53.546;9.954;2022-09-27T14:39:39;16.30;99.90
17639;DHT22;8938;53.546;9.954;2022-09-27T14:42:19;16.40;99.90
17639;DHT22;8938;53.546;9.954;2022-09-27T14:44:46;16.40;99.90
17639;DHT22;8938;53.546;9.954;2022-09-27T14:47:19;16.30;99.90
17639;DHT22;8938;53.546;9.954;2022-09-27T14:50:12;16.30;99.90
17639;DHT22;8938;53.546;9.954;2022-09-27T14:52:41;16.40;99.90
17639;DHT22;8938;53.546;9.954;2022-09-27T14:55:18;16.30;99.90
17639;DHT22;8938;53.546;9.954;2022-09-27T14:57:50;16.30;99.90
17639;DHT22;8938;53.546;9.954;2022-09-27T15:00:28;16.30;99.90
17639;DHT22;8938;53.546;9.954;2022-09-27T15:03:01;16.40;99.90
17639;DHT22;8938;53.546;9.954;2022-09-27T15:05:31;16.30;99.90
17639;DHT22;8938;53.546;9.954;2022-09-27T15:07:58;16.30;99.90
17639;DHT22;8938;53.546;9.954;2022-09-27T15:10:28;16.30;99.90
17639;DHT22;8938;53.546;9.954;2022-09-27T15:12:56;16.40;99.90
17639;DHT22;8938;53.546;9.954;2022-09-27T15:15:29;16.40;99.90
17639;DHT22;8938;53.546;9.954;2022-09-27T15:17:56;16.30;99.90
17639;DHT22;8938;53.546;9.954;2022-09-27T15:20:28;16.20;99.90
17639;DHT22;8938;53.546;9.954;2022-09-27T15:22:55;16.20;99.90
17639;DHT22;8938;53.546;9.954;2022-09-27T15:25:22;16.10;99.90
17639;DHT22;8938;53.546;9.954;2022-09-27T15:27:53;16.00;99.90
17639;DHT22;8938;53.546;9.954;2022-09-27T15:30:36;16.10;99.90
17639;DHT22;8938;53.546;9.954;2022-09-27T15:33:03;16.10;99.90
17639;DHT22;8938;53.546;9.954;2022-09-27T15:35:34;16.10;99.90
17639;DHT22;8938;53.546;9.954;2022-09-27T15:38:12;16.20;99.90
17639;DHT22;8938;53.546;9.954;2022-09-27T15:43:20;16.20;99.90
17639;DHT22;8938;53.546;9.954;2022-09-27T15:45:50;16.10;99.90
17639;DHT22;8938;53.546;9.954;2022-09-27T15:48:18;16.00;99.90
17639;DHT22;8938;53.546;9.954;2022-09-27T15:50:45;15.90;99.90
17639;DHT22;8938;53.546;9.954;2022-09-27T15:53:12;15.80;99.90
17639;DHT22;8938;53.546;9.954;2022-09-27T15:55:41;15.80;99.90
17639;DHT22;8938;53.546;9.954;2022-09-27T15:58:19;15.80;99.90
17639;DHT22;8938;53.546;9.954;2022-09-27T16:00:54;15.80;99.90
17639;DHT22;8938;53.546;9.954;2022-09-27T16:03:20;15.60;99.90
17639;DHT22;8938;53.546;9.954;2022-09-27T16:05:46;15.50;99.90
17639;DHT22;8938;53.546;9.954;2022-09-27T16:08:11;15.40;99.90
17639;DHT22;8938;53.546;9.954;2022-09-27T16:10:50;15.40;99.90
17639;DHT22;8938;53.546;9.954;2022-09-27T16:13:16;15.40;99.90
17639;DHT22;8938;53.546;9.954;2022-09-27T16:15:41;15.30;99.90
17639;DHT22;8938;53.546;9.954;2022-09-27T16:18:08;15.40;99.90
17639;DHT22;8938;53.546;9.954;2022-09-27T16:20:34;15.30;99.90
17639;DHT22;8938;53.546;9.954;2022-09-27T16:23:00;15.30;99.90
17639;DHT22;8938;53.546;9.954;2022-09-27T16:25:26;15.30;99.90
17639;DHT22;8938;53.546;9.954;2022-09-27T16:27:53;15.30;99.90
17639;DHT22;8938;53.546;9.954;2022-09-27T16:30:21;15.20;99.90
17639;DHT22;8938;53.546;9.954;2022-09-27T16:32:47;15.20;99.90
17639;DHT22;8938;53.546;9.954;2022-09-27T16:35:14;15.30;99.90
17639;DHT22;8938;53.546;9.954;2022-09-27T16:37:40;15.30;99.90
17639;DHT22;8938;53.546;9.954;2022-09-27T16:40:07;15.30;99.90
17639;DHT22;8938;53.546;9.954;2022-09-27T16:42:34;15.30;99.90
17639;DHT22;8938;53.546;9.954;2022-09-27T16:45:00;15.20;99.90
17639;DHT22;8938;53.546;9.954;2022-09-27T16:47:29;15.30;99.90
17639;DHT22;8938;53.546;9.954;2022-09-27T16:49:55;15.30;99.90
17639;DHT22;8938;53.546;9.954;2022-09-27T16:52:39;15.20;99.90
17639;DHT22;8938;53.546;9.954;2022-09-27T16:55:07;15.20;99.90
17639;DHT22;8938;53.546;9.954;2022-09-27T16:57:33;15.20;99.90
17639;DHT22;8938;53.546;9.954;2022-09-27T16:59:59;15.10;99.90
17639;DHT22;8938;53.546;9.954;2022-09-27T17:02:25;15.00;99.90
17639;DHT22;8938;53.546;9.954;2022-09-27T17:04:51;15.10;99.90
17639;DHT22;8938;53.546;9.954;2022-09-27T17:07:18;15.00;99.90
17639;DHT22;8938;53.546;9.954;2022-09-27T17:09:44;15.10;99.90
17639;DHT22;8938;53.546;9.954;2022-09-27T17:12:09;15.00;99.90
17639;DHT22;8938;53.546;9.954;2022-09-27T17:14:35;15.10;99.90
17639;DHT22;8938;53.546;9.954;2022-09-27T17:17:00;15.20;99.90
17639;DHT22;8938;53.546;9.954;2022-09-27T17:19:26;15.10;99.90
17639;DHT22;8938;53.546;9.954;2022-09-27T17:21:52;15.10;99.90
17639;DHT22;8938;53.546;9.954;2022-09-27T17:24:20;15.10;99.90
17639;DHT22;8938;53.546;9.954;2022-09-27T17:26:46;15.10;99.90
17639;DHT22;8938;53.546;9.954;2022-09-27T17:29:12;15.20;99.90
17639;DHT22;8938;53.546;9.954;2022-09-27T17:31:39;15.10;99.90
17639;DHT22;8938;53.546;9.954;2022-09-27T17:34:06;15.10;99.90
17639;DHT22;8938;53.546;9.954;2022-09-27T17:36:34;15.10;99.90
17639;DHT22;8938;53.546;9.954;2022-09-27T17:39:02;15.10;99.90
17639;DHT22;8938;53.546;9.954;2022-09-27T17:41:28;15.00;99.90
17639;DHT22;8938;53.546;9.954;2022-09-27T17:43:57;15.00;99.90
17639;DHT22;8938;53.546;9.954;2022-09-27T17:46:28;15.10;99.90
17639;DHT22;8938;53.546;9.954;2022-09-27T17:48:54;15.00;99.90
17639;DHT22;8938;53.546;9.954;2022-09-27T17:51:40;14.90;99.90
17639;DHT22;8938;53.546;9.954;2022-09-27T17:54:07;14.90;99.90
17639;DHT22;8938;53.546;9.954;2022-09-27T17:56:37;14.80;99.90
17639;DHT22;8938;53.546;9.954;2022-09-27T17:59:04;14.70;99.90
17639;DHT22;8938;53.546;9.954;2022-09-27T18:01:30;14.60;99.90
17639;DHT22;8938;53.546;9.954;2022-09-27T18:03:57;14.70;99.90
17639;DHT22;8938;53.546;9.954;2022-09-27T18:06:24;14.70;99.90
17639;DHT22;8938;53.546;9.954;2022-09-27T18:08:50;14.70;99.90
17639;DHT22;8938;53.546;9.954;2022-09-27T18:11:19;14.70;99.90
17639;DHT22;8938;53.546;9.954;2022-09-27T18:13:49;14.60;99.90
17639;DHT22;8938;53.546;9.954;2022-09-27T18:16:16;14.60;99.90
17639;DHT22;8938;53.546;9.954;2022-09-27T18:18:43;14.60;99.90
17639;DHT22;8938;53.546;9.954;2022-09-27T18:21:13;14.60;99.90
17639;DHT22;8938;53.546;9.954;2022-09-27T18:23:40;14.50;99.90
17639;DHT22;8938;53.546;9.954;2022-09-27T18:26:07;14.40;99.90
17639;DHT22;8938;53.546;9.954;2022-09-27T18:28:38;14.40;99.90